sensor_id;sensor_type;location;lat;lon;timestamp;P1;durP1;ratioP1;P2;durP2;ratioP2
4102;SDS011;2065;49.790;9.620;2023-05-16T00:00:02;9.40;;;8.43;;
4102;SDS011;2065;49.790;9.620;2023-05-16T00:02:33;9.77;;;8.40;;
4102;SDS011;2065;49.790;9.620;2023-05-16T00:05:01;15.00;;;9.63;;
4102;SDS011;2065;49.790;9.620;2023-05-16T00:07:32;11.83;;;9.53;;
4102;SDS011;2065;49.790;9.620;2023-05-16T00:10:00;8.87;;;7.97;;
4102;SDS011;2065;49.790;9.620;2023-05-16T00:12:28;10.70;;;8.87;;
4102;SDS011;2065;49.790;9.620;2023-05-16T00:14:55;9.43;;;7.73;;
4102;SDS011;2065;49.790;9.620;2023-05-16T00:17:22;22.47;;;8.93;;
4102;SDS011;2065;49.790;9.620;2023-05-16T00:19:53;10.13;;;8.97;;
4102;SDS011;2065;49.790;9.620;2023-05-16T00:22:23;10.00;;;8.40;;
4102;SDS011;2065;49.790;9.620;2023-05-16T00:24:50;14.67;;;10.30;;
4102;SDS011;2065;49.790;9.620;2023-05-16T00:27:18;11.73;;;9.50;;
4102;SDS011;2065;49.790;9.620;2023-05-16T00:29:47;11.43;;;8.97;;
4102;SDS011;2065;49.790;9.620;2023-05-16T00:32:16;11.20;;;8.67;;
4102;SDS011;2065;49.790;9.620;2023-05-16T00:34:43;10.90;;;9.40;;
4102;SDS011;2065;49.790;9.620;2023-05-16T00:37:11;12.23;;;9.47;;
4102;SDS011;2065;49.790;9.620;2023-05-16T00:39:38;10.40;;;9.27;;
4102;SDS011;2065;49.790;9.620;2023-05-16T00:42:05;10.13;;;9.13;;
4102;SDS011;2065;49.790;9.620;2023-05-16T00:44:35;10.83;;;9.00;;
4102;SDS011;2065;49.790;9.620;2023-05-16T00:47:02;13.30;;;9.40;;
4102;SDS011;2065;49.790;9.620;2023-05-16T00:49:29;9.50;;;8.43;;
4102;SDS011;2065;49.790;9.620;2023-05-16T00:51:56;16.87;;;9.83;;
4102;SDS011;2065;49.790;9.620;2023-05-16T00:54:24;10.43;;;9.00;;
4102;SDS011;2065;49.790;9.620;2023-05-16T00:56:53;11.27;;;9.57;;
4102;SDS011;2065;49.790;9.620;2023-05-16T00:59:20;12.83;;;9.20;;
4102;SDS011;2065;49.790;9.620;2023-05-16T01:01:50;11.97;;;9.47;;
4102;SDS011;2065;49.790;9.620;2023-05-16T01:04:17;12.37;;;9.70;;
4102;SDS011;2065;49.790;9.620;2023-05-16T01:06:44;12.27;;;9.43;;
4102;SDS011;2065;49.790;9.620;2023-05-16T01:09:11;12.90;;;10.40;;
4102;SDS011;2065;49.790;9.620;2023-05-16T01:11:42;12.70;;;10.00;;
4102;SDS011;2065;49.790;9.620;2023-05-16T01:14:15;13.10;;;9.80;;
4102;SDS011;2065;49.790;9.620;2023-05-16T01:16:49;12.07;;;10.53;;
4102;SDS011;2065;49.790;9.620;2023-05-16T01:19:26;10.60;;;9.23;;
4102;SDS011;2065;49.790;9.620;2023-05-16T01:22:15;13.07;;;9.83;;
4102;SDS011;2065;49.790;9.620;2023-05-16T01:25:04;11.90;;;9.60;;
4102;SDS011;2065;49.790;9.620;2023-05-16T01:27:39;13.37;;;9.63;;
4102;SDS011;2065;49.790;9.620;2023-05-16T01:30:12;11.40;;;10.17;;
4102;SDS011;2065;49.790;9.620;2023-05-16T01:32:41;12.40;;;9.40;;
4102;SDS011;2065;49.790;9.620;2023-05-16T01:35:09;16.10;;;9.47;;
4102;SDS011;2065;49.790;9.620;2023-05-16T01:37:41;12.73;;;8.67;;
4102;SDS011;2065;49.790;9.620;2023-05-16T01:40:15;14.83;;;10.13;;
4102;SDS011;2065;49.790;9.620;2023-05-16T01:42:49;11.93;;;9.80;;
4102;SDS011;2065;49.790;9.620;2023-05-16T01:45:22;13.70;;;9.50;;
4102;SDS011;2065;49.790;9.620;2023-05-16T01:47:54;13.40;;;9.67;;
4102;SDS011;2065;49.790;9.620;2023-05-16T01:50:29;11.30;;;9.53;;
4102;SDS011;2065;49.790;9.620;2023-05-16T01:53:00;12.30;;;9.80;;
4102;SDS011;2065;49.790;9.620;2023-05-16T01:55:36;14.73;;;10.60;;
4102;SDS011;2065;49.790;9.620;2023-05-16T01:58:12;15.70;;;10.03;;
4102;SDS011;2065;49.790;9.620;2023-05-16T02:00:40;17.70;;;11.50;;
4102;SDS011;2065;49.790;9.620;2023-05-16T02:03:08;13.10;;;10.50;;
4102;SDS011;2065;49.790;9.620;2023-05-16T02:05:36;12.73;;;10.50;;
4102;SDS011;2065;49.790;9.620;2023-05-16T02:08:04;13.83;;;10.47;;
4102;SDS011;2065;49.790;9.620;2023-05-16T02:10:32;15.37;;;10.83;;
4102;SDS011;2065;49.790;9.620;2023-05-16T02:12:59;15.27;;;12.27;;
4102;SDS011;2065;49.790;9.620;2023-05-16T02:15:28;13.27;;;9.97;;
4102;SDS011;2065;49.790;9.620;2023-05-16T02:17:55;13.77;;;9.93;;
4102;SDS011;2065;49.790;9.620;2023-05-16T02:20:22;12.67;;;9.87;;
4102;SDS011;2065;49.790;9.620;2023-05-16T02:22:49;14.80;;;9.83;;
4102;SDS011;2065;49.790;9.620;2023-05-16T02:25:16;11.17;;;10.00;;
4102;SDS011;2065;49.790;9.620;2023-05-16T02:27:44;15.67;;;10.07;;
4102;SDS011;2065;49.790;9.620;2023-05-16T02:30:11;11.27;;;10.07;;
4102;SDS011;2065;49.790;9.620;2023-05-16T02:32:40;11.83;;;9.40;;
4102;SDS011;2065;49.790;9.620;2023-05-16T02:35:09;11.60;;;9.30;;
4102;SDS011;2065;49.790;9.620;2023-05-16T02:37:37;12.63;;;10.50;;
4102;SDS011;2065;49.790;9.620;2023-05-16T02:40:04;13.27;;;10.93;;
4102;SDS011;2065;49.790;9.620;2023-05-16T02:42:35;12.57;;;11.23;;
4102;SDS011;2065;49.790;9.620;2023-05-16T02:45:02;10.70;;;9.60;;
4102;SDS011;2065;49.790;9.620;2023-05-16T02:47:30;15.90;;;12.20;;
4102;SDS011;2065;49.790;9.620;2023-05-16T02:49:59;12.40;;;9.87;;
4102;SDS011;2065;49.790;9.620;2023-05-16T02:52:26;15.20;;;10.10;;
4102;SDS011;2065;49.790;9.620;2023-05-16T02:54:53;12.83;;;10.50;;
4102;SDS011;2065;49.790;9.620;2023-05-16T02:57:21;12.97;;;10.30;;
4102;SDS011;2065;49.790;9.620;2023-05-16T02:59:48;14.00;;;11.10;;
4102;SDS011;2065;49.790;9.620;2023-05-16T03:02:16;13.13;;;11.73;;
4102;SDS011;2065;49.790;9.620;2023-05-16T03:04:43;19.97;;;12.27;;
4102;SDS011;2065;49.790;9.620;2023-05-16T03:07:11;20.33;;;12.67;;
4102;SDS011;2065;49.790;9.620;2023-05-16T03:09:38;15.43;;;10.90;;
4102;SDS011;2065;49.790;9.620;2023-05-16T03:12:06;13.30;;;10.70;;
4102;SDS011;2065;49.790;9.620;2023-05-16T03:14:33;13.17;;;11.70;;
4102;SDS011;2065;49.790;9.620;2023-05-16T03:17:01;15.33;;;11.23;;
4102;SDS011;2065;49.790;9.620;2023-05-16T03:19:29;12.80;;;10.80;;
4102;SDS011;2065;49.790;9.620;2023-05-16T03:21:56;12.70;;;11.10;;
4102;SDS011;2065;49.790;9.620;2023-05-16T03:24:24;15.00;;;12.30;;
4102;SDS011;2065;49.790;9.620;2023-05-16T03:26:51;16.77;;;12.80;;
4102;SDS011;2065;49.790;9.620;2023-05-16T03:29:19;15.07;;;11.77;;
4102;SDS011;2065;49.790;9.620;2023-05-16T03:31:46;14.23;;;11.77;;
4102;SDS011;2065;49.790;9.620;2023-05-16T03:34:14;16.87;;;11.33;;
4102;SDS011;2065;49.790;9.620;2023-05-16T03:36:40;13.03;;;10.63;;
4102;SDS011;2065;49.790;9.620;2023-05-16T03:39:08;15.20;;;11.73;;
4102;SDS011;2065;49.790;9.620;2023-05-16T03:41:36;15.57;;;10.90;;
4102;SDS011;2065;49.790;9.620;2023-05-16T03:44:03;15.57;;;11.30;;
4102;SDS011;2065;49.790;9.620;2023-05-16T03:46:30;14.03;;;11.57;;
4102;SDS011;2065;49.790;9.620;2023-05-16T03:48:57;14.80;;;11.43;;
4102;SDS011;2065;49.790;9.620;2023-05-16T03:51:24;14.80;;;11.80;;
4102;SDS011;2065;49.790;9.620;2023-05-16T03:53:52;13.47;;;11.10;;
4102;SDS011;2065;49.790;9.620;2023-05-16T03:56:19;12.90;;;11.50;;
4102;SDS011;2065;49.790;9.620;2023-05-16T03:58:48;14.53;;;12.47;;
4102;SDS011;2065;49.790;9.620;2023-05-16T04:01:15;14.50;;;11.60;;
4102;SDS011;2065;49.790;9.620;2023-05-16T04:03:42;17.93;;;12.50;;
4102;SDS011;2065;49.790;9.620;2023-05-16T04:06:09;12.87;;;10.83;;
4102;SDS011;2065;49.790;9.620;2023-05-16T04:08:36;13.93;;;11.70;;
4102;SDS011;2065;49.790;9.620;2023-05-16T04:11:05;16.13;;;13.33;;
4102;SDS011;2065;49.790;9.620;2023-05-16T04:13:32;16.40;;;10.77;;
4102;SDS011;2065;49.790;9.620;2023-05-16T04:16:00;15.20;;;12.43;;
4102;SDS011;2065;49.790;9.620;2023-05-16T04:18:27;15.17;;;12.03;;
4102;SDS011;2065;49.790;9.620;2023-05-16T04:20:54;14.37;;;12.30;;
4102;SDS011;2065;49.790;9.620;2023-05-16T04:23:21;15.93;;;12.20;;
4102;SDS011;2065;49.790;9.620;2023-05-16T04:25:48;15.10;;;11.90;;
4102;SDS011;2065;49.790;9.620;2023-05-16T04:28:15;15.40;;;12.20;;
4102;SDS011;2065;49.790;9.620;2023-05-16T04:30:42;17.03;;;13.50;;
4102;SDS011;2065;49.790;9.620;2023-05-16T04:33:11;14.23;;;11.73;;
4102;SDS011;2065;49.790;9.620;2023-05-16T04:35:37;16.00;;;11.27;;
4102;SDS011;2065;49.790;9.620;2023-05-16T04:38:05;15.77;;;11.00;;
4102;SDS011;2065;49.790;9.620;2023-05-16T04:40:32;13.77;;;11.20;;
4102;SDS011;2065;49.790;9.620;2023-05-16T04:42:59;12.30;;;10.07;;
4102;SDS011;2065;49.790;9.620;2023-05-16T04:45:26;15.37;;;11.27;;
4102;SDS011;2065;49.790;9.620;2023-05-16T04:47:53;15.47;;;10.77;;
4102;SDS011;2065;49.790;9.620;2023-05-16T04:50:21;15.43;;;11.07;;
4102;SDS011;2065;49.790;9.620;2023-05-16T04:52:48;14.00;;;11.00;;
4102;SDS011;2065;49.790;9.620;2023-05-16T04:55:15;15.30;;;12.40;;
4102;SDS011;2065;49.790;9.620;2023-05-16T04:57:42;17.30;;;11.73;;
4102;SDS011;2065;49.790;9.620;2023-05-16T05:00:10;16.70;;;11.50;;
4102;SDS011;2065;49.790;9.620;2023-05-16T05:02:38;16.03;;;12.17;;
4102;SDS011;2065;49.790;9.620;2023-05-16T05:05:05;16.17;;;11.47;;
4102;SDS011;2065;49.790;9.620;2023-05-16T05:07:37;15.13;;;12.23;;
4102;SDS011;2065;49.790;9.620;2023-05-16T05:10:05;18.40;;;11.30;;
4102;SDS011;2065;49.790;9.620;2023-05-16T05:12:32;17.13;;;12.90;;
4102;SDS011;2065;49.790;9.620;2023-05-16T05:15:00;17.03;;;11.90;;
4102;SDS011;2065;49.790;9.620;2023-05-16T05:17:27;18.13;;;12.23;;
4102;SDS011;2065;49.790;9.620;2023-05-16T05:19:55;16.70;;;11.60;;
4102;SDS011;2065;49.790;9.620;2023-05-16T05:22:22;17.37;;;13.07;;
4102;SDS011;2065;49.790;9.620;2023-05-16T05:24:50;16.43;;;12.43;;
4102;SDS011;2065;49.790;9.620;2023-05-16T05:27:17;18.07;;;13.13;;
4102;SDS011;2065;49.790;9.620;2023-05-16T05:29:44;19.07;;;12.50;;
4102;SDS011;2065;49.790;9.620;2023-05-16T05:32:11;15.00;;;10.90;;
4102;SDS011;2065;49.790;9.620;2023-05-16T05:34:38;18.20;;;12.03;;
4102;SDS011;2065;49.790;9.620;2023-05-16T05:37:05;23.00;;;12.97;;
4102;SDS011;2065;49.790;9.620;2023-05-16T05:39:32;17.00;;;12.50;;
4102;SDS011;2065;49.790;9.620;2023-05-16T05:42:00;16.60;;;11.70;;
4102;SDS011;2065;49.790;9.620;2023-05-16T05:44:27;16.43;;;12.47;;
4102;SDS011;2065;49.790;9.620;2023-05-16T05:46:54;15.13;;;11.93;;
4102;SDS011;2065;49.790;9.620;2023-05-16T05:49:22;17.23;;;12.53;;
4102;SDS011;2065;49.790;9.620;2023-05-16T05:51:49;20.07;;;13.80;;
4102;SDS011;2065;49.790;9.620;2023-05-16T05:54:17;22.20;;;15.13;;
4102;SDS011;2065;49.790;9.620;2023-05-16T05:56:44;16.40;;;12.10;;
4102;SDS011;2065;49.790;9.620;2023-05-16T05:59:13;20.87;;;14.10;;
4102;SDS011;2065;49.790;9.620;2023-05-16T06:01:40;19.20;;;13.17;;
4102;SDS011;2065;49.790;9.620;2023-05-16T06:04:08;20.23;;;13.47;;
4102;SDS011;2065;49.790;9.620;2023-05-16T06:06:35;15.77;;;11.67;;
4102;SDS011;2065;49.790;9.620;2023-05-16T06:09:04;19.53;;;12.90;;
4102;SDS011;2065;49.790;9.620;2023-05-16T06:11:31;18.57;;;12.77;;
4102;SDS011;2065;49.790;9.620;2023-05-16T06:13:58;16.03;;;12.10;;
4102;SDS011;2065;49.790;9.620;2023-05-16T06:16:26;21.47;;;14.53;;
4102;SDS011;2065;49.790;9.620;2023-05-16T06:18:53;20.17;;;13.07;;
4102;SDS011;2065;49.790;9.620;2023-05-16T06:21:20;17.97;;;13.13;;
4102;SDS011;2065;49.790;9.620;2023-05-16T06:23:47;18.23;;;14.40;;
4102;SDS011;2065;49.790;9.620;2023-05-16T06:26:14;20.10;;;14.33;;
4102;SDS011;2065;49.790;9.620;2023-05-16T06:28:41;24.53;;;14.00;;
4102;SDS011;2065;49.790;9.620;2023-05-16T06:31:08;21.07;;;13.37;;
4102;SDS011;2065;49.790;9.620;2023-05-16T06:33:36;24.50;;;16.17;;
4102;SDS011;2065;49.790;9.620;2023-05-16T06:36:03;22.53;;;13.93;;
4102;SDS011;2065;49.790;9.620;2023-05-16T06:38:31;20.13;;;14.03;;
4102;SDS011;2065;49.790;9.620;2023-05-16T06:40:58;23.00;;;14.37;;
4102;SDS011;2065;49.790;9.620;2023-05-16T06:43:25;18.07;;;12.70;;
4102;SDS011;2065;49.790;9.620;2023-05-16T06:45:52;18.27;;;12.43;;
4102;SDS011;2065;49.790;9.620;2023-05-16T06:48:19;16.80;;;12.60;;
4102;SDS011;2065;49.790;9.620;2023-05-16T06:50:48;18.20;;;13.27;;
4102;SDS011;2065;49.790;9.620;2023-05-16T06:53:15;17.13;;;12.10;;
4102;SDS011;2065;49.790;9.620;2023-05-16T06:55:42;19.40;;;13.90;;
4102;SDS011;2065;49.790;9.620;2023-05-16T06:58:10;19.73;;;13.43;;
4102;SDS011;2065;49.790;9.620;2023-05-16T07:00:37;19.00;;;13.33;;
4102;SDS011;2065;49.790;9.620;2023-05-16T07:03:04;18.30;;;12.00;;
4102;SDS011;2065;49.790;9.620;2023-05-16T07:05:31;17.30;;;10.83;;
4102;SDS011;2065;49.790;9.620;2023-05-16T07:08:00;16.37;;;12.13;;
4102;SDS011;2065;49.790;9.620;2023-05-16T07:10:27;17.93;;;12.20;;
4102;SDS011;2065;49.790;9.620;2023-05-16T07:12:54;15.57;;;11.50;;
4102;SDS011;2065;49.790;9.620;2023-05-16T07:15:22;13.40;;;10.93;;
4102;SDS011;2065;49.790;9.620;2023-05-16T07:17:49;19.17;;;14.97;;
4102;SDS011;2065;49.790;9.620;2023-05-16T07:20:16;13.77;;;11.30;;
4102;SDS011;2065;49.790;9.620;2023-05-16T07:22:43;18.10;;;10.70;;
4102;SDS011;2065;49.790;9.620;2023-05-16T07:25:13;18.57;;;10.77;;
4102;SDS011;2065;49.790;9.620;2023-05-16T07:27:40;14.30;;;11.53;;
4102;SDS011;2065;49.790;9.620;2023-05-16T07:30:09;16.00;;;11.70;;
4102;SDS011;2065;49.790;9.620;2023-05-16T07:32:38;14.23;;;9.83;;
4102;SDS011;2065;49.790;9.620;2023-05-16T07:35:05;14.83;;;9.67;;
4102;SDS011;2065;49.790;9.620;2023-05-16T07:37:33;16.10;;;11.00;;
4102;SDS011;2065;49.790;9.620;2023-05-16T07:40:01;13.90;;;11.40;;
4102;SDS011;2065;49.790;9.620;2023-05-16T07:42:31;12.33;;;9.80;;
4102;SDS011;2065;49.790;9.620;2023-05-16T07:44:57;14.20;;;9.40;;
4102;SDS011;2065;49.790;9.620;2023-05-16T07:47:25;11.60;;;8.97;;
4102;SDS011;2065;49.790;9.620;2023-05-16T07:49:51;10.90;;;9.60;;
4102;SDS011;2065;49.790;9.620;2023-05-16T07:52:18;11.87;;;8.87;;
4102;SDS011;2065;49.790;9.620;2023-05-16T07:54:46;15.03;;;9.00;;
4102;SDS011;2065;49.790;9.620;2023-05-16T07:57:13;10.67;;;8.23;;
4102;SDS011;2065;49.790;9.620;2023-05-16T07:59:42;12.50;;;10.03;;
4102;SDS011;2065;49.790;9.620;2023-05-16T08:02:09;11.10;;;7.90;;
4102;SDS011;2065;49.790;9.620;2023-05-16T08:04:36;11.67;;;8.53;;
4102;SDS011;2065;49.790;9.620;2023-05-16T08:07:04;13.60;;;8.60;;
4102;SDS011;2065;49.790;9.620;2023-05-16T08:09:31;14.00;;;8.87;;
4102;SDS011;2065;49.790;9.620;2023-05-16T08:11:58;12.20;;;8.20;;
4102;SDS011;2065;49.790;9.620;2023-05-16T08:14:28;11.40;;;8.07;;
4102;SDS011;2065;49.790;9.620;2023-05-16T08:16:58;10.83;;;8.10;;
4102;SDS011;2065;49.790;9.620;2023-05-16T08:19:25;13.43;;;8.33;;
4102;SDS011;2065;49.790;9.620;2023-05-16T08:21:53;11.83;;;8.20;;
4102;SDS011;2065;49.790;9.620;2023-05-16T08:24:20;11.37;;;8.40;;
4102;SDS011;2065;49.790;9.620;2023-05-16T08:26:47;15.00;;;9.57;;
4102;SDS011;2065;49.790;9.620;2023-05-16T08:29:14;13.30;;;8.43;;
4102;SDS011;2065;49.790;9.620;2023-05-16T08:31:41;12.13;;;8.23;;
4102;SDS011;2065;49.790;9.620;2023-05-16T08:34:10;13.13;;;8.73;;
4102;SDS011;2065;49.790;9.620;2023-05-16T08:36:37;12.70;;;9.10;;
4102;SDS011;2065;49.790;9.620;2023-05-16T08:39:04;11.90;;;8.87;;
4102;SDS011;2065;49.790;9.620;2023-05-16T08:41:31;11.90;;;10.20;;
4102;SDS011;2065;49.790;9.620;2023-05-16T08:43:58;14.90;;;8.20;;
4102;SDS011;2065;49.790;9.620;2023-05-16T08:46:25;14.97;;;8.67;;
4102;SDS011;2065;49.790;9.620;2023-05-16T08:48:56;11.70;;;8.40;;
4102;SDS011;2065;49.790;9.620;2023-05-16T08:51:26;10.30;;;7.43;;
4102;SDS011;2065;49.790;9.620;2023-05-16T08:53:59;12.57;;;8.67;;
4102;SDS011;2065;49.790;9.620;2023-05-16T08:56:29;11.30;;;8.30;;
4102;SDS011;2065;49.790;9.620;2023-05-16T08:58:57;11.40;;;9.23;;
4102;SDS011;2065;49.790;9.620;2023-05-16T09:01:25;8.37;;;6.57;;
4102;SDS011;2065;49.790;9.620;2023-05-16T09:03:52;8.70;;;6.43;;
4102;SDS011;2065;49.790;9.620;2023-05-16T09:06:21;7.80;;;5.60;;
4102;SDS011;2065;49.790;9.620;2023-05-16T09:08:50;8.10;;;5.80;;
4102;SDS011;2065;49.790;9.620;2023-05-16T09:11:17;6.13;;;5.37;;
4102;SDS011;2065;49.790;9.620;2023-05-16T09:13:44;7.80;;;5.70;;
4102;SDS011;2065;49.790;9.620;2023-05-16T09:16:11;8.60;;;6.20;;
4102;SDS011;2065;49.790;9.620;2023-05-16T09:18:40;8.23;;;7.03;;
4102;SDS011;2065;49.790;9.620;2023-05-16T09:21:09;8.20;;;5.50;;
4102;SDS011;2065;49.790;9.620;2023-05-16T09:23:36;8.43;;;4.73;;
4102;SDS011;2065;49.790;9.620;2023-05-16T09:26:05;6.37;;;5.20;;
4102;SDS011;2065;49.790;9.620;2023-05-16T09:28:32;6.27;;;5.40;;
4102;SDS011;2065;49.790;9.620;2023-05-16T09:31:00;7.70;;;4.10;;
4102;SDS011;2065;49.790;9.620;2023-05-16T09:33:27;6.07;;;3.70;;
4102;SDS011;2065;49.790;9.620;2023-05-16T09:35:55;7.20;;;3.67;;
4102;SDS011;2065;49.790;9.620;2023-05-16T09:38:23;6.73;;;4.90;;
4102;SDS011;2065;49.790;9.620;2023-05-16T09:40:51;5.80;;;5.03;;
4102;SDS011;2065;49.790;9.620;2023-05-16T09:43:21;5.87;;;4.77;;
4102;SDS011;2065;49.790;9.620;2023-05-16T09:45:50;5.13;;;4.40;;
4102;SDS011;2065;49.790;9.620;2023-05-16T09:48:20;5.17;;;4.00;;
4102;SDS011;2065;49.790;9.620;2023-05-16T09:50:48;6.77;;;4.30;;
4102;SDS011;2065;49.790;9.620;2023-05-16T09:53:17;4.33;;;3.87;;
4102;SDS011;2065;49.790;9.620;2023-05-16T09:55:58;5.60;;;4.33;;
4102;SDS011;2065;49.790;9.620;2023-05-16T09:58:28;6.93;;;4.47;;
4102;SDS011;2065;49.790;9.620;2023-05-16T10:00:56;5.13;;;3.53;;
4102;SDS011;2065;49.790;9.620;2023-05-16T10:03:23;11.10;;;4.77;;
4102;SDS011;2065;49.790;9.620;2023-05-16T10:05:51;6.63;;;4.70;;
4102;SDS011;2065;49.790;9.620;2023-05-16T10:08:19;8.93;;;4.53;;
4102;SDS011;2065;49.790;9.620;2023-05-16T10:10:47;5.03;;;3.63;;
4102;SDS011;2065;49.790;9.620;2023-05-16T10:13:18;6.03;;;3.30;;
4102;SDS011;2065;49.790;9.620;2023-05-16T10:15:48;4.17;;;3.20;;
4102;SDS011;2065;49.790;9.620;2023-05-16T10:18:16;6.30;;;3.60;;
4102;SDS011;2065;49.790;9.620;2023-05-16T10:20:45;6.33;;;2.70;;
4102;SDS011;2065;49.790;9.620;2023-05-16T10:23:16;3.53;;;3.23;;
4102;SDS011;2065;49.790;9.620;2023-05-16T10:25:45;3.17;;;2.37;;
4102;SDS011;2065;49.790;9.620;2023-05-16T10:28:13;4.23;;;2.80;;
4102;SDS011;2065;49.790;9.620;2023-05-16T10:30:41;2.13;;;1.83;;
4102;SDS011;2065;49.790;9.620;2023-05-16T10:33:10;1.80;;;1.53;;
4102;SDS011;2065;49.790;9.620;2023-05-16T10:35:39;4.00;;;2.27;;
4102;SDS011;2065;49.790;9.620;2023-05-16T10:38:07;1.53;;;1.43;;
4102;SDS011;2065;49.790;9.620;2023-05-16T10:40:36;2.47;;;2.27;;
4102;SDS011;2065;49.790;9.620;2023-05-16T10:43:04;4.20;;;1.80;;
4102;SDS011;2065;49.790;9.620;2023-05-16T10:45:33;1.90;;;1.80;;
4102;SDS011;2065;49.790;9.620;2023-05-16T10:48:04;4.50;;;1.70;;
4102;SDS011;2065;49.790;9.620;2023-05-16T10:50:35;2.37;;;1.90;;
4102;SDS011;2065;49.790;9.620;2023-05-16T10:53:14;1.60;;;1.40;;
4102;SDS011;2065;49.790;9.620;2023-05-16T10:58:41;3.00;;;1.40;;
4102;SDS011;2065;49.790;9.620;2023-05-16T11:01:16;1.70;;;1.27;;
4102;SDS011;2065;49.790;9.620;2023-05-16T11:06:43;4.23;;;1.40;;
4102;SDS011;2065;49.790;9.620;2023-05-16T11:09:19;1.17;;;1.07;;
4102;SDS011;2065;49.790;9.620;2023-05-16T11:11:53;1.87;;;1.77;;
4102;SDS011;2065;49.790;9.620;2023-05-16T11:14:23;1.80;;;1.40;;
4102;SDS011;2065;49.790;9.620;2023-05-16T11:16:51;3.13;;;2.10;;
4102;SDS011;2065;49.790;9.620;2023-05-16T11:19:29;2.10;;;1.90;;
4102;SDS011;2065;49.790;9.620;2023-05-16T11:22:05;1.50;;;1.40;;
4102;SDS011;2065;49.790;9.620;2023-05-16T11:24:33;2.40;;;1.77;;
4102;SDS011;2065;49.790;9.620;2023-05-16T11:27:01;1.40;;;1.30;;
4102;SDS011;2065;49.790;9.620;2023-05-16T11:29:30;1.87;;;1.20;;
4102;SDS011;2065;49.790;9.620;2023-05-16T11:31:58;1.30;;;1.20;;
4102;SDS011;2065;49.790;9.620;2023-05-16T11:34:25;12.07;;;6.90;;
4102;SDS011;2065;49.790;9.620;2023-05-16T11:36:53;10.07;;;5.47;;
4102;SDS011;2065;49.790;9.620;2023-05-16T11:39:22;1.60;;;1.50;;
4102;SDS011;2065;49.790;9.620;2023-05-16T11:41:49;2.10;;;1.33;;
4102;SDS011;2065;49.790;9.620;2023-05-16T11:44:17;2.23;;;1.70;;
4102;SDS011;2065;49.790;9.620;2023-05-16T11:46:44;1.83;;;1.40;;
4102;SDS011;2065;49.790;9.620;2023-05-16T11:49:11;2.00;;;1.70;;
4102;SDS011;2065;49.790;9.620;2023-05-16T11:51:38;3.67;;;2.00;;
4102;SDS011;2065;49.790;9.620;2023-05-16T11:54:05;6.50;;;4.03;;
4102;SDS011;2065;49.790;9.620;2023-05-16T11:56:36;3.33;;;2.70;;
4102;SDS011;2065;49.790;9.620;2023-05-16T11:59:03;3.60;;;2.50;;
4102;SDS011;2065;49.790;9.620;2023-05-16T12:01:30;2.40;;;2.00;;
4102;SDS011;2065;49.790;9.620;2023-05-16T12:03:59;2.17;;;1.63;;
4102;SDS011;2065;49.790;9.620;2023-05-16T12:06:26;1.77;;;1.50;;
4102;SDS011;2065;49.790;9.620;2023-05-16T12:08:55;1.60;;;1.50;;
4102;SDS011;2065;49.790;9.620;2023-05-16T12:11:22;2.23;;;1.73;;
4102;SDS011;2065;49.790;9.620;2023-05-16T12:13:50;1.47;;;1.30;;
4102;SDS011;2065;49.790;9.620;2023-05-16T12:16:18;4.30;;;1.83;;
4102;SDS011;2065;49.790;9.620;2023-05-16T12:18:45;4.03;;;1.83;;
4102;SDS011;2065;49.790;9.620;2023-05-16T12:21:13;2.40;;;1.57;;
4102;SDS011;2065;49.790;9.620;2023-05-16T12:23:41;2.90;;;2.30;;
4102;SDS011;2065;49.790;9.620;2023-05-16T12:26:08;2.23;;;2.00;;
4102;SDS011;2065;49.790;9.620;2023-05-16T12:28:35;1.70;;;1.60;;
4102;SDS011;2065;49.790;9.620;2023-05-16T12:31:11;1.97;;;1.50;;
4102;SDS011;2065;49.790;9.620;2023-05-16T12:33:45;2.67;;;1.63;;
4102;SDS011;2065;49.790;9.620;2023-05-16T12:36:12;3.50;;;3.30;;
4102;SDS011;2065;49.790;9.620;2023-05-16T12:38:40;2.03;;;1.83;;
4102;SDS011;2065;49.790;9.620;2023-05-16T12:41:11;3.30;;;3.10;;
4102;SDS011;2065;49.790;9.620;2023-05-16T12:43:43;4.00;;;2.30;;
4102;SDS011;2065;49.790;9.620;2023-05-16T12:46:11;5.10;;;4.60;;
4102;SDS011;2065;49.790;9.620;2023-05-16T12:48:39;2.00;;;1.90;;
4102;SDS011;2065;49.790;9.620;2023-05-16T12:51:10;2.07;;;1.87;;
4102;SDS011;2065;49.790;9.620;2023-05-16T12:53:41;2.53;;;1.80;;
4102;SDS011;2065;49.790;9.620;2023-05-16T12:56:09;2.50;;;1.70;;
4102;SDS011;2065;49.790;9.620;2023-05-16T12:58:37;2.40;;;1.67;;
4102;SDS011;2065;49.790;9.620;2023-05-16T13:01:04;3.07;;;2.10;;
4102;SDS011;2065;49.790;9.620;2023-05-16T13:03:33;4.03;;;1.57;;
4102;SDS011;2065;49.790;9.620;2023-05-16T13:06:00;4.43;;;1.33;;
4102;SDS011;2065;49.790;9.620;2023-05-16T13:08:29;2.40;;;1.70;;
4102;SDS011;2065;49.790;9.620;2023-05-16T13:10:56;5.80;;;1.97;;
4102;SDS011;2065;49.790;9.620;2023-05-16T13:13:23;2.20;;;1.70;;
4102;SDS011;2065;49.790;9.620;2023-05-16T13:15:50;2.37;;;1.60;;
4102;SDS011;2065;49.790;9.620;2023-05-16T13:18:17;4.43;;;1.40;;
4102;SDS011;2065;49.790;9.620;2023-05-16T13:20:45;6.10;;;2.10;;
4102;SDS011;2065;49.790;9.620;2023-05-16T13:23:12;3.43;;;2.10;;
4102;SDS011;2065;49.790;9.620;2023-05-16T13:25:39;3.93;;;1.50;;
4102;SDS011;2065;49.790;9.620;2023-05-16T13:28:07;3.17;;;1.77;;
4102;SDS011;2065;49.790;9.620;2023-05-16T13:30:33;4.20;;;1.57;;
4102;SDS011;2065;49.790;9.620;2023-05-16T13:33:01;2.30;;;1.73;;
4102;SDS011;2065;49.790;9.620;2023-05-16T13:35:28;9.30;;;2.23;;
4102;SDS011;2065;49.790;9.620;2023-05-16T13:37:57;5.63;;;1.93;;
4102;SDS011;2065;49.790;9.620;2023-05-16T13:40:24;4.30;;;1.67;;
4102;SDS011;2065;49.790;9.620;2023-05-16T13:42:52;5.23;;;1.50;;
4102;SDS011;2065;49.790;9.620;2023-05-16T13:45:19;1.50;;;1.30;;
4102;SDS011;2065;49.790;9.620;2023-05-16T13:47:46;5.23;;;1.40;;
4102;SDS011;2065;49.790;9.620;2023-05-16T13:50:13;2.80;;;1.20;;
4102;SDS011;2065;49.790;9.620;2023-05-16T13:52:40;3.03;;;1.83;;
4102;SDS011;2065;49.790;9.620;2023-05-16T13:55:09;2.37;;;1.60;;
4102;SDS011;2065;49.790;9.620;2023-05-16T13:57:36;8.23;;;1.43;;
4102;SDS011;2065;49.790;9.620;2023-05-16T14:00:04;6.10;;;1.97;;
4102;SDS011;2065;49.790;9.620;2023-05-16T14:02:39;3.90;;;1.50;;
4102;SDS011;2065;49.790;9.620;2023-05-16T14:05:07;5.47;;;1.40;;
4102;SDS011;2065;49.790;9.620;2023-05-16T14:07:34;2.50;;;1.53;;
4102;SDS011;2065;49.790;9.620;2023-05-16T14:10:01;4.30;;;1.60;;
4102;SDS011;2065;49.790;9.620;2023-05-16T14:12:32;2.33;;;1.40;;
4102;SDS011;2065;49.790;9.620;2023-05-16T14:14:59;6.40;;;1.80;;
4102;SDS011;2065;49.790;9.620;2023-05-16T14:17:26;2.27;;;1.10;;
4102;SDS011;2065;49.790;9.620;2023-05-16T14:19:53;2.33;;;1.50;;
4102;SDS011;2065;49.790;9.620;2023-05-16T14:22:20;2.83;;;1.27;;
4102;SDS011;2065;49.790;9.620;2023-05-16T14:24:47;2.20;;;1.47;;
4102;SDS011;2065;49.790;9.620;2023-05-16T14:27:13;3.13;;;1.60;;
4102;SDS011;2065;49.790;9.620;2023-05-16T14:29:42;3.73;;;1.40;;
4102;SDS011;2065;49.790;9.620;2023-05-16T14:32:09;11.30;;;1.67;;
4102;SDS011;2065;49.790;9.620;2023-05-16T14:34:38;4.70;;;1.20;;
4102;SDS011;2065;49.790;9.620;2023-05-16T14:37:05;6.83;;;1.10;;
4102;SDS011;2065;49.790;9.620;2023-05-16T14:39:34;2.60;;;1.30;;
4102;SDS011;2065;49.790;9.620;2023-05-16T14:42:01;1.93;;;1.40;;
4102;SDS011;2065;49.790;9.620;2023-05-16T14:44:28;4.27;;;1.60;;
4102;SDS011;2065;49.790;9.620;2023-05-16T14:46:57;4.90;;;1.67;;
4102;SDS011;2065;49.790;9.620;2023-05-16T14:49:24;3.17;;;1.17;;
4102;SDS011;2065;49.790;9.620;2023-05-16T14:51:50;2.73;;;1.10;;
4102;SDS011;2065;49.790;9.620;2023-05-16T14:54:17;1.53;;;1.17;;
4102;SDS011;2065;49.790;9.620;2023-05-16T14:56:45;1.83;;;1.10;;
4102;SDS011;2065;49.790;9.620;2023-05-16T14:59:12;4.87;;;1.40;;
4102;SDS011;2065;49.790;9.620;2023-05-16T15:01:39;2.53;;;1.10;;
4102;SDS011;2065;49.790;9.620;2023-05-16T15:04:07;2.23;;;1.30;;
4102;SDS011;2065;49.790;9.620;2023-05-16T15:06:34;2.23;;;1.53;;
4102;SDS011;2065;49.790;9.620;2023-05-16T15:09:01;1.70;;;0.90;;
4102;SDS011;2065;49.790;9.620;2023-05-16T15:11:29;2.30;;;1.40;;
4102;SDS011;2065;49.790;9.620;2023-05-16T15:13:56;1.93;;;1.20;;